Remsenburg, New York
Current Conditions -  °F | °C
As of 5:53 AM on Wednesday 26 Nov 2014 (Local Time) from KFOK Reporting Station
Light Rain Light Rain  
Wind Chill: 39°   Ceiling: 6000
Heat Index: 45°   Visibility: 10mi
Dew Point: 35°   Wind: 12mph
Humidity: 68%   Direction: 30°NNE
Pressure: 30.14"   Gusts: NA
Location:  40.81°N, 72.71°W
Report Text: KFOK 261053Z AUTO 03010KT 10SM -RA BKN060 OVC070 07/02 A3014 RMK AO2 RAB16 SLP206 P0001 T00720017 TSNO
Loading
Personal Weather Stations






























Interactive Weather Map New forecast layout! Learn more

10-Day Weather Forecast

Advertisements
Track Severe Weather on mobile